createdAt,value
2023-04-02T00:00:18.440Z,1.55
2023-04-02T00:05:31.608Z,1.50
2023-04-02T00:10:29.214Z,1.45
2023-04-02T00:15:21.062Z,1.50
2023-04-02T00:20:16.902Z,1.42
2023-04-02T00:25:13.774Z,1.60
2023-04-02T00:30:07.337Z,3.35
2023-04-02T00:34:59.741Z,1.63
2023-04-02T00:39:57.410Z,2.05
2023-04-02T00:44:50.138Z,1.63
2023-04-02T00:49:42.296Z,1.58
2023-04-02T00:55:02.781Z,1.27
2023-04-02T01:00:21.800Z,1.45
2023-04-02T01:05:16.897Z,1.98
2023-04-02T01:10:56.689Z,1.27
2023-04-02T01:16:19.661Z,2.10
2023-04-02T01:21:53.006Z,2.28
2023-04-02T01:27:20.256Z,1.27
2023-04-02T01:32:14.990Z,1.38
2023-04-02T01:37:27.645Z,1.50
2023-04-02T01:42:32.317Z,1.23
2023-04-02T01:47:27.481Z,1.52
2023-04-02T01:52:34.853Z,1.63
2023-04-02T01:57:28.419Z,1.52
2023-04-02T02:02:22.137Z,1.50
2023-04-02T02:07:20.756Z,1.50
2023-04-02T02:12:17.050Z,1.98
2023-04-02T02:17:15.858Z,1.45
2023-04-02T02:22:19.177Z,1.42
2023-04-02T02:27:23.027Z,1.67
2023-04-02T02:32:27.838Z,1.38
2023-04-02T02:37:25.489Z,1.83
2023-04-02T02:42:38.935Z,1.73
2023-04-02T02:47:37.625Z,1.52
2023-04-02T02:52:35.484Z,2.03
2023-04-02T02:57:48.569Z,1.92
2023-04-02T03:02:42.438Z,1.73
2023-04-02T03:07:37.591Z,2.13
2023-04-02T03:12:52.495Z,2.13
2023-04-02T03:18:01.480Z,2.28
2023-04-02T03:23:03.805Z,2.50
2023-04-02T03:28:02.054Z,2.13
2023-04-02T03:33:00.697Z,2.53
2023-04-02T03:42:53.406Z,7.40
2023-04-02T03:47:54.959Z,9.30
2023-04-02T03:52:47.960Z,11.73
2023-04-02T03:57:49.542Z,13.20
2023-04-02T04:02:47.867Z,16.70
2023-04-02T04:07:43.769Z,18.98
2023-04-02T04:12:43.978Z,18.98
2023-04-02T04:18:02.599Z,18.55
2023-04-02T04:23:09.908Z,19.95
2023-04-02T04:28:16.834Z,19.42
2023-04-02T04:33:22.633Z,20.85
2023-04-02T04:38:49.523Z,18.83
2023-04-02T04:43:48.517Z,16.13
2023-04-02T04:49:05.281Z,15.85
2023-04-02T04:53:58.430Z,16.60
2023-04-02T04:59:11.348Z,16.05
2023-04-02T05:04:03.864Z,17.50
2023-04-02T05:09:03.604Z,18.50
2023-04-02T05:14:02.601Z,16.52
2023-04-02T05:19:42.553Z,18.77
2023-04-02T05:24:53.615Z,20.15
2023-04-02T05:29:49.557Z,20.48
2023-04-02T05:34:45.758Z,18.90
2023-04-02T05:39:37.741Z,19.10
2023-04-02T05:44:53.811Z,17.13
2023-04-02T05:49:51.134Z,20.52
2023-04-02T05:54:51.315Z,20.80
2023-04-02T05:59:50.484Z,18.13
2023-04-02T06:04:49.910Z,15.93
2023-04-02T06:10:12.575Z,13.32
2023-04-02T06:15:07.046Z,12.18
2023-04-02T06:20:01.198Z,13.52
2023-04-02T06:25:05.407Z,12.95
2023-04-02T06:30:07.567Z,13.82
2023-04-02T06:34:59.550Z,14.00
2023-04-02T06:39:51.945Z,14.80
2023-04-02T06:44:45.546Z,15.38
2023-04-02T06:50:11.554Z,17.88
2023-04-02T06:55:18.756Z,17.92
2023-04-02T07:00:49.890Z,19.90
2023-04-02T07:05:53.067Z,21.95
2023-04-02T07:10:45.050Z,26.45
2023-04-02T07:15:38.327Z,28.27
2023-04-02T07:20:33.376Z,32.10
2023-04-02T07:25:30.355Z,36.88
2023-04-02T07:30:22.407Z,39.92
2023-04-02T07:35:14.212Z,37.10
2023-04-02T07:40:09.347Z,38.65
2023-04-02T07:45:01.292Z,38.85
2023-04-02T07:49:54.757Z,39.25
2023-04-02T07:54:46.763Z,41.90
2023-04-02T07:59:38.548Z,43.80
2023-04-02T08:04:30.516Z,42.35
2023-04-02T08:09:22.369Z,46.97
2023-04-02T08:14:14.722Z,41.95
2023-04-02T08:19:06.815Z,41.65
2023-04-02T08:23:58.653Z,40.42
2023-04-02T08:28:50.551Z,40.03
2023-04-02T08:33:42.447Z,40.85
2023-04-02T08:38:34.293Z,42.63
2023-04-02T08:43:42.097Z,38.25
2023-04-02T08:48:36.614Z,41.47
2023-04-02T08:53:35.790Z,38.33
2023-04-02T08:58:43.131Z,39.00
2023-04-02T09:03:44.890Z,39.85
2023-04-02T09:08:37.144Z,36.20
2023-04-02T09:13:31.333Z,36.40
2023-04-02T09:18:23.725Z,36.50
2023-04-02T09:23:19.827Z,36.10
2023-04-02T09:28:12.081Z,33.83
2023-04-02T09:33:09.773Z,31.67
2023-04-02T09:38:07.610Z,31.03
2023-04-02T09:43:21.174Z,27.00
2023-04-02T09:48:30.796Z,27.98
2023-04-02T09:53:33.549Z,27.50
2023-04-02T09:58:25.854Z,27.80
2023-04-02T10:03:25.869Z,26.45
2023-04-02T10:08:28.262Z,26.25
2023-04-02T10:13:24.620Z,25.75
2023-04-02T10:18:44.334Z,23.35
2023-04-02T10:23:36.489Z,22.30
2023-04-02T10:29:04.484Z,20.17
2023-04-02T10:34:03.404Z,20.50
2023-04-02T10:39:05.137Z,22.92
2023-04-02T10:44:16.762Z,24.38
2023-04-02T10:49:20.126Z,24.52
2023-04-02T10:54:24.923Z,24.10
2023-04-02T10:59:37.494Z,20.85
2023-04-02T11:04:41.901Z,16.38
2023-04-02T11:09:41.354Z,16.42
2023-04-02T11:14:33.962Z,15.98
2023-04-02T11:19:28.956Z,11.45
2023-04-02T11:24:37.463Z,9.85
2023-04-02T11:29:34.759Z,11.10
2023-04-02T11:34:41.980Z,10.63
2023-04-02T11:39:54.260Z,9.68
2023-04-02T11:44:46.155Z,8.18
2023-04-02T11:49:58.918Z,7.45
2023-04-02T11:55:19.952Z,6.75
2023-04-02T12:00:22.519Z,8.93
2023-04-02T12:05:43.574Z,5.32
2023-04-02T12:10:56.252Z,6.32
2023-04-02T12:15:49.604Z,4.82
2023-04-02T12:20:42.961Z,5.20
2023-04-02T12:25:40.578Z,4.70
2023-04-02T12:30:32.882Z,4.50
2023-04-02T12:35:33.462Z,4.47
2023-04-02T12:40:26.821Z,5.05
2023-04-02T12:45:29.350Z,5.57
2023-04-02T12:50:23.099Z,6.13
2023-04-02T12:55:23.156Z,5.55
2023-04-02T13:00:25.086Z,4.90
2023-04-02T13:05:56.598Z,5.63
2023-04-02T13:10:57.120Z,5.68
2023-04-02T13:16:05.093Z,5.57
2023-04-02T13:21:05.061Z,5.17
2023-04-02T13:25:58.859Z,4.90
2023-04-02T13:30:50.869Z,4.85
2023-04-02T13:35:43.789Z,3.88
2023-04-02T13:40:37.713Z,2.95
2023-04-02T13:45:40.262Z,3.42
2023-04-02T13:50:35.033Z,2.78
2023-04-02T13:55:30.706Z,2.63
2023-04-02T14:00:22.912Z,1.42
2023-04-02T14:05:36.047Z,2.25
2023-04-02T14:10:53.353Z,1.30
2023-04-02T14:15:51.297Z,1.30
2023-04-02T14:21:01.143Z,1.60
2023-04-02T14:26:03.155Z,2.33
2023-04-02T14:31:13.233Z,1.80
2023-04-02T14:36:31.576Z,2.42
2023-04-02T14:41:35.352Z,2.57
2023-04-02T14:46:29.021Z,2.67
2023-04-02T14:51:31.241Z,3.00
2023-04-02T14:56:24.711Z,2.78
2023-04-02T15:01:27.861Z,3.75
2023-04-02T15:06:25.808Z,3.53
2023-04-02T15:11:26.308Z,4.60
2023-04-02T15:16:23.677Z,4.28
2023-04-02T15:21:29.715Z,5.75
2023-04-02T15:26:42.820Z,4.88
2023-04-02T15:31:36.016Z,5.20
2023-04-02T15:36:37.474Z,6.68
2023-04-02T15:41:41.065Z,5.97
2023-04-02T15:46:50.929Z,6.25
2023-04-02T15:52:20.180Z,7.20
2023-04-02T15:57:34.344Z,5.95
2023-04-02T16:03:07.746Z,5.70
2023-04-02T16:08:18.198Z,5.47
2023-04-02T16:13:39.974Z,6.50
2023-04-02T16:18:37.661Z,7.22
2023-04-02T16:23:36.285Z,5.97
2023-04-02T16:28:33.234Z,5.57
2023-04-02T16:33:59.752Z,5.97
2023-04-02T16:39:29.365Z,4.72
2023-04-02T16:44:39.826Z,4.30
2023-04-02T16:49:39.875Z,4.03
2023-04-02T16:54:37.509Z,3.70
2023-04-02T16:59:44.490Z,3.47
2023-04-02T17:04:39.849Z,7.82
2023-04-02T17:10:08.256Z,5.55
2023-04-02T17:15:20.707Z,4.38
2023-04-02T17:20:23.391Z,4.03
2023-04-02T17:25:21.517Z,4.03
2023-04-02T17:30:17.413Z,4.40
2023-04-02T17:35:32.370Z,4.05
2023-04-02T17:40:27.650Z,4.18
2023-04-02T17:45:42.187Z,3.45
2023-04-02T17:50:42.860Z,2.95
2023-04-02T17:55:52.759Z,3.38
2023-04-02T18:01:26.462Z,2.90
2023-04-02T18:06:33.320Z,4.65
2023-04-02T18:11:48.383Z,7.03
2023-04-02T18:16:54.862Z,5.38
2023-04-02T18:22:19.286Z,4.43
2023-04-02T18:27:38.649Z,4.40
2023-04-02T18:32:52.105Z,4.53
2023-04-02T18:38:12.527Z,3.33
2023-04-02T18:43:13.257Z,3.70
2023-04-02T18:48:21.097Z,3.88
2023-04-02T18:53:17.122Z,3.50
2023-04-02T18:58:18.002Z,3.30
2023-04-02T19:03:31.442Z,2.78
2023-04-02T19:08:54.170Z,3.80
2023-04-02T19:13:48.529Z,4.80
2023-04-02T19:18:58.399Z,4.63
2023-04-02T19:24:31.665Z,4.43
2023-04-02T19:29:44.540Z,4.70
2023-04-02T19:35:02.142Z,6.88
2023-04-02T19:40:00.445Z,8.40
2023-04-02T19:44:53.669Z,6.95
2023-04-02T19:49:45.745Z,7.13
2023-04-02T19:54:38.468Z,4.93
2023-04-02T19:59:30.493Z,6.65
2023-04-02T20:04:22.240Z,6.18
2023-04-02T20:09:14.095Z,6.22
2023-04-02T20:14:06.494Z,6.22
2023-04-02T20:18:58.809Z,6.38
2023-04-02T20:23:54.690Z,5.60
2023-04-02T20:28:46.757Z,4.75
2023-04-02T20:33:39.337Z,4.95
2023-04-02T20:38:32.174Z,5.05
2023-04-02T20:43:24.270Z,4.10
2023-04-02T20:48:16.964Z,4.88
2023-04-02T20:53:08.763Z,3.88
2023-04-02T20:58:00.881Z,4.38
2023-04-02T21:02:52.631Z,3.30
2023-04-02T21:07:44.572Z,3.50
2023-04-02T21:12:36.343Z,3.42
2023-04-02T21:17:28.189Z,3.85
2023-04-02T21:22:20.037Z,3.45
2023-04-02T21:27:12.797Z,3.42
2023-04-02T21:32:17.974Z,3.28
2023-04-02T21:37:13.040Z,3.80
2023-04-02T21:42:04.843Z,3.25
2023-04-02T21:46:56.834Z,3.00
2023-04-02T21:51:49.434Z,3.28
2023-04-02T21:56:44.184Z,3.00
2023-04-02T22:01:39.750Z,3.28
2023-04-02T22:06:36.062Z,2.75
2023-04-02T22:11:30.676Z,3.00
2023-04-02T22:16:26.002Z,2.47
2023-04-02T22:21:18.996Z,2.45
2023-04-02T22:26:12.769Z,2.75
2023-04-02T22:31:08.777Z,2.38
2023-04-02T22:36:01.216Z,2.22
2023-04-02T22:40:53.123Z,2.15
2023-04-02T22:45:47.013Z,2.47
2023-04-02T22:50:38.979Z,2.40
2023-04-02T22:55:31.102Z,2.30
2023-04-02T23:00:23.245Z,2.83
2023-04-02T23:05:15.054Z,2.20
2023-04-02T23:10:07.530Z,2.47
2023-04-02T23:14:59.961Z,1.77
2023-04-02T23:19:51.792Z,2.20
2023-04-02T23:24:43.544Z,1.88
2023-04-02T23:29:35.380Z,2.25
2023-04-02T23:34:27.197Z,2.10
2023-04-02T23:39:20.421Z,2.30
2023-04-02T23:44:12.357Z,2.42
2023-04-02T23:49:04.357Z,2.28
2023-04-02T23:53:56.439Z,2.20
2023-04-02T23:58:49.036Z,2.03
